sensor_id;sensor_type;location;lat;lon;timestamp;pressure;altitude;pressure_sealevel;temperature;humidity
37792;BME280;29527;55.766;37.570;2023-02-21T00:00:13;97580.09;;;-8.58;59.48
37792;BME280;29527;55.766;37.570;2023-02-21T00:02:58;97581.63;;;-8.52;59.21
37792;BME280;29527;55.766;37.570;2023-02-21T00:05:42;97576.06;;;-8.65;59.75
37792;BME280;29527;55.766;37.570;2023-02-21T00:08:26;97577.03;;;-8.68;59.97
37792;BME280;29527;55.766;37.570;2023-02-21T00:11:09;97565.91;;;-8.71;60.10
37792;BME280;29527;55.766;37.570;2023-02-21T00:13:53;97566.53;;;-8.65;60.14
37792;BME280;29527;55.766;37.570;2023-02-21T00:16:37;97549.50;;;-8.72;60.01
37792;BME280;29527;55.766;37.570;2023-02-21T00:19:21;97574.97;;;-8.59;59.40
37792;BME280;29527;55.766;37.570;2023-02-21T00:22:04;97555.19;;;-8.62;59.53
37792;BME280;29527;55.766;37.570;2023-02-21T00:24:48;97556.75;;;-8.58;59.35
37792;BME280;29527;55.766;37.570;2023-02-21T00:27:32;97563.09;;;-8.65;59.60
37792;BME280;29527;55.766;37.570;2023-02-21T00:30:16;97561.94;;;-8.58;59.66
37792;BME280;29527;55.766;37.570;2023-02-21T00:33:00;97553.13;;;-8.54;59.48
37792;BME280;29527;55.766;37.570;2023-02-21T00:35:44;97560.44;;;-8.63;59.56
37792;BME280;29527;55.766;37.570;2023-02-21T00:38:29;97553.41;;;-8.61;59.67
37792;BME280;29527;55.766;37.570;2023-02-21T00:41:13;97557.72;;;-8.60;59.42
37792;BME280;29527;55.766;37.570;2023-02-21T00:43:58;97560.78;;;-8.73;60.10
37792;BME280;29527;55.766;37.570;2023-02-21T00:46:42;97548.66;;;-8.72;59.98
37792;BME280;29527;55.766;37.570;2023-02-21T00:49:27;97555.06;;;-8.59;59.30
37792;BME280;29527;55.766;37.570;2023-02-21T00:52:10;97541.59;;;-8.69;58.47
37792;BME280;29527;55.766;37.570;2023-02-21T00:54:54;97538.91;;;-8.88;59.19
37792;BME280;29527;55.766;37.570;2023-02-21T00:57:38;97528.28;;;-9.04;59.56
37792;BME280;29527;55.766;37.570;2023-02-21T01:00:23;97532.84;;;-9.11;59.71
37792;BME280;29527;55.766;37.570;2023-02-21T01:03:08;97528.44;;;-9.09;59.72
37792;BME280;29527;55.766;37.570;2023-02-21T01:05:53;97511.00;;;-9.27;60.63
37792;BME280;29527;55.766;37.570;2023-02-21T01:08:42;97521.19;;;-9.23;60.24
37792;BME280;29527;55.766;37.570;2023-02-21T01:11:26;97515.31;;;-9.04;59.57
37792;BME280;29527;55.766;37.570;2023-02-21T01:14:11;97513.88;;;-8.89;58.63
37792;BME280;29527;55.766;37.570;2023-02-21T01:16:55;97510.22;;;-9.07;58.84
37792;BME280;29527;55.766;37.570;2023-02-21T01:19:41;97507.75;;;-9.56;59.68
37792;BME280;29527;55.766;37.570;2023-02-21T01:22:25;97465.94;;;-9.95;60.48
37792;BME280;29527;55.766;37.570;2023-02-21T01:25:09;97512.38;;;-9.90;61.04
37792;BME280;29527;55.766;37.570;2023-02-21T01:27:54;97508.44;;;-10.00;61.28
37792;BME280;29527;55.766;37.570;2023-02-21T01:30:38;97501.72;;;-10.06;60.89
37792;BME280;29527;55.766;37.570;2023-02-21T01:33:22;97512.63;;;-9.96;61.11
37792;BME280;29527;55.766;37.570;2023-02-21T01:36:07;97521.75;;;-10.11;60.97
37792;BME280;29527;55.766;37.570;2023-02-21T01:38:52;97495.72;;;-10.32;61.19
37792;BME280;29527;55.766;37.570;2023-02-21T01:41:35;97509.78;;;-10.15;61.19
37792;BME280;29527;55.766;37.570;2023-02-21T01:44:40;97504.94;;;-10.25;61.65
37792;BME280;29527;55.766;37.570;2023-02-21T01:47:25;97498.09;;;-10.26;61.00
37792;BME280;29527;55.766;37.570;2023-02-21T01:50:29;97496.75;;;-10.38;61.44
37792;BME280;29527;55.766;37.570;2023-02-21T01:53:23;97510.88;;;-10.46;61.70
37792;BME280;29527;55.766;37.570;2023-02-21T01:56:09;97504.41;;;-10.34;61.39
37792;BME280;29527;55.766;37.570;2023-02-21T01:58:56;97517.81;;;-10.47;61.36
37792;BME280;29527;55.766;37.570;2023-02-21T02:04:25;97504.56;;;-10.91;62.30
37792;BME280;29527;55.766;37.570;2023-02-21T02:07:10;97512.75;;;-10.51;61.62
37792;BME280;29527;55.766;37.570;2023-02-21T02:09:54;97509.06;;;-10.44;61.10
37792;BME280;29527;55.766;37.570;2023-02-21T02:13:01;97469.41;;;-10.97;61.75
37792;BME280;29527;55.766;37.570;2023-02-21T02:42:32;97515.34;;;-11.07;61.35
37792;BME280;29527;55.766;37.570;2023-02-21T02:45:14;97510.41;;;-10.86;61.12
37792;BME280;29527;55.766;37.570;2023-02-21T02:47:43;97513.22;;;-10.65;60.31
37792;BME280;29527;55.766;37.570;2023-02-21T02:50:13;97507.69;;;-10.82;60.59
37792;BME280;29527;55.766;37.570;2023-02-21T02:52:49;97468.72;;;-11.02;60.92
37792;BME280;29527;55.766;37.570;2023-02-21T02:57:47;97506.56;;;-10.73;60.19
37792;BME280;29527;55.766;37.570;2023-02-21T03:00:14;97509.28;;;-10.77;59.64
37792;BME280;29527;55.766;37.570;2023-02-21T03:08:44;97509.56;;;-10.87;60.07
37792;BME280;29527;55.766;37.570;2023-02-21T03:11:17;97485.38;;;-10.84;59.69
37792;BME280;29527;55.766;37.570;2023-02-21T03:13:55;97503.09;;;-11.00;60.33
37792;BME280;29527;55.766;37.570;2023-02-21T03:16:23;97508.50;;;-11.08;60.67
37792;BME280;29527;55.766;37.570;2023-02-21T03:19:11;97505.41;;;-10.64;59.00
37792;BME280;29527;55.766;37.570;2023-02-21T03:21:46;97505.91;;;-10.79;59.03
37792;BME280;29527;55.766;37.570;2023-02-21T03:24:14;97502.69;;;-10.88;59.53
37792;BME280;29527;55.766;37.570;2023-02-21T03:26:43;97502.31;;;-11.02;60.00
37792;BME280;29527;55.766;37.570;2023-02-21T03:29:10;97470.50;;;-11.33;60.05
37792;BME280;29527;55.766;37.570;2023-02-21T03:31:42;97515.22;;;-11.02;60.49
37792;BME280;29527;55.766;37.570;2023-02-21T03:34:09;97510.78;;;-10.99;59.78
37792;BME280;29527;55.766;37.570;2023-02-21T03:36:36;97509.28;;;-11.06;59.88
37792;BME280;29527;55.766;37.570;2023-02-21T03:39:02;97505.25;;;-11.15;60.18
37792;BME280;29527;55.766;37.570;2023-02-21T03:41:28;97512.97;;;-11.13;60.46
37792;BME280;29527;55.766;37.570;2023-02-21T03:43:53;97509.19;;;-11.03;59.88
37792;BME280;29527;55.766;37.570;2023-02-21T03:46:19;97508.69;;;-11.14;59.88
37792;BME280;29527;55.766;37.570;2023-02-21T03:48:44;97503.47;;;-11.13;59.48
37792;BME280;29527;55.766;37.570;2023-02-21T03:51:10;97488.69;;;-11.37;59.73
37792;BME280;29527;55.766;37.570;2023-02-21T03:53:36;97496.56;;;-11.41;60.59
37792;BME280;29527;55.766;37.570;2023-02-21T03:56:01;97449.38;;;-11.76;61.00
37792;BME280;29527;55.766;37.570;2023-02-21T03:58:27;97492.69;;;-11.56;61.26
37792;BME280;29527;55.766;37.570;2023-02-21T04:00:53;97489.00;;;-11.47;61.16
37792;BME280;29527;55.766;37.570;2023-02-21T04:03:19;97501.03;;;-11.47;61.14
37792;BME280;29527;55.766;37.570;2023-02-21T04:05:44;97451.66;;;-11.36;60.24
37792;BME280;29527;55.766;37.570;2023-02-21T04:08:10;97499.72;;;-11.31;59.97
37792;BME280;29527;55.766;37.570;2023-02-21T04:10:35;97487.00;;;-11.39;60.29
37792;BME280;29527;55.766;37.570;2023-02-21T04:13:01;97487.53;;;-11.56;60.46
37792;BME280;29527;55.766;37.570;2023-02-21T04:15:26;97479.59;;;-11.79;60.97
37792;BME280;29527;55.766;37.570;2023-02-21T04:17:51;97489.00;;;-11.77;60.98
37792;BME280;29527;55.766;37.570;2023-02-21T04:20:17;97489.56;;;-11.67;60.74
37792;BME280;29527;55.766;37.570;2023-02-21T04:22:42;97492.91;;;-11.63;60.91
37792;BME280;29527;55.766;37.570;2023-02-21T04:25:09;97450.91;;;-12.00;61.23
37792;BME280;29527;55.766;37.570;2023-02-21T04:27:34;97492.28;;;-11.72;60.90
37792;BME280;29527;55.766;37.570;2023-02-21T04:30:00;97463.44;;;-11.86;60.71
37792;BME280;29527;55.766;37.570;2023-02-21T04:32:28;97498.38;;;-11.74;60.70
37792;BME280;29527;55.766;37.570;2023-02-21T04:34:54;97507.00;;;-11.75;61.08
37792;BME280;29527;55.766;37.570;2023-02-21T04:37:20;97498.50;;;-11.79;60.86
37792;BME280;29527;55.766;37.570;2023-02-21T04:39:45;97510.44;;;-11.75;60.86
37792;BME280;29527;55.766;37.570;2023-02-21T04:42:11;97506.16;;;-11.76;61.00
37792;BME280;29527;55.766;37.570;2023-02-21T04:44:37;97518.28;;;-11.78;61.25
37792;BME280;29527;55.766;37.570;2023-02-21T04:47:03;97524.38;;;-11.82;60.79
37792;BME280;29527;55.766;37.570;2023-02-21T04:49:28;97518.66;;;-11.92;60.82
37792;BME280;29527;55.766;37.570;2023-02-21T04:51:53;97519.66;;;-11.98;60.81
37792;BME280;29527;55.766;37.570;2023-02-21T04:54:19;97497.81;;;-12.16;61.09
37792;BME280;29527;55.766;37.570;2023-02-21T04:56:45;97512.16;;;-12.05;61.02
37792;BME280;29527;55.766;37.570;2023-02-21T04:59:10;97517.28;;;-12.04;60.91
37792;BME280;29527;55.766;37.570;2023-02-21T05:01:36;97522.94;;;-11.91;60.59
37792;BME280;29527;55.766;37.570;2023-02-21T05:04:02;97530.66;;;-11.91;60.77
37792;BME280;29527;55.766;37.570;2023-02-21T05:06:29;97527.28;;;-11.93;61.17
37792;BME280;29527;55.766;37.570;2023-02-21T05:08:55;97534.66;;;-11.79;60.47
37792;BME280;29527;55.766;37.570;2023-02-21T05:11:22;97518.13;;;-11.73;60.08
37792;BME280;29527;55.766;37.570;2023-02-21T05:13:48;97516.84;;;-11.58;60.13
37792;BME280;29527;55.766;37.570;2023-02-21T05:16:14;97515.44;;;-11.39;59.01
37792;BME280;29527;55.766;37.570;2023-02-21T05:18:44;97510.81;;;-11.57;58.98
37792;BME280;29527;55.766;37.570;2023-02-21T05:21:10;97482.75;;;-11.70;59.39
37792;BME280;29527;55.766;37.570;2023-02-21T05:23:38;97532.59;;;-11.36;59.24
37792;BME280;29527;55.766;37.570;2023-02-21T05:28:33;97531.78;;;-11.10;59.00
37792;BME280;29527;55.766;37.570;2023-02-21T05:30:58;97532.13;;;-10.92;58.16
37792;BME280;29527;55.766;37.570;2023-02-21T05:33:24;97537.50;;;-10.70;57.20
37792;BME280;29527;55.766;37.570;2023-02-21T05:35:50;97527.16;;;-10.70;57.21
37792;BME280;29527;55.766;37.570;2023-02-21T05:38:18;97516.81;;;-9.93;56.66
37792;BME280;29527;55.766;37.570;2023-02-21T05:40:44;97501.03;;;-8.92;55.69
37792;BME280;29527;55.766;37.570;2023-02-21T05:43:10;97530.59;;;-7.30;52.28
37792;BME280;29527;55.766;37.570;2023-02-21T05:45:35;97516.13;;;-5.91;48.00
37792;BME280;29527;55.766;37.570;2023-02-21T05:48:01;97515.75;;;-4.83;46.26
37792;BME280;29527;55.766;37.570;2023-02-21T05:50:28;97517.66;;;-3.94;44.42
37792;BME280;29527;55.766;37.570;2023-02-21T05:52:57;97468.75;;;-3.19;41.76
37792;BME280;29527;55.766;37.570;2023-02-21T05:55:23;97507.88;;;-1.93;40.95
37792;BME280;29527;55.766;37.570;2023-02-21T05:57:48;97518.06;;;-1.11;38.73
37792;BME280;29527;55.766;37.570;2023-02-21T06:00:20;97506.59;;;-0.60;37.76
37792;BME280;29527;55.766;37.570;2023-02-21T06:02:48;97474.63;;;-0.18;36.59
37792;BME280;29527;55.766;37.570;2023-02-21T06:05:15;97508.13;;;0.39;36.14
37792;BME280;29527;55.766;37.570;2023-02-21T06:07:41;97500.50;;;0.81;35.20
37792;BME280;29527;55.766;37.570;2023-02-21T06:10:07;97508.66;;;1.56;33.96
37792;BME280;29527;55.766;37.570;2023-02-21T06:12:32;97504.44;;;2.40;32.41
37792;BME280;29527;55.766;37.570;2023-02-21T06:14:58;97494.03;;;2.91;31.03
37792;BME280;29527;55.766;37.570;2023-02-21T06:17:23;97490.44;;;3.02;31.18
37792;BME280;29527;55.766;37.570;2023-02-21T06:19:49;97501.13;;;3.51;29.71
37792;BME280;29527;55.766;37.570;2023-02-21T06:22:15;97502.41;;;4.26;28.96
37792;BME280;29527;55.766;37.570;2023-02-21T06:24:41;97499.97;;;4.62;27.65
37792;BME280;29527;55.766;37.570;2023-02-21T06:27:06;97505.97;;;4.64;27.07
37792;BME280;29527;55.766;37.570;2023-02-21T06:29:32;97491.09;;;4.43;27.98
37792;BME280;29527;55.766;37.570;2023-02-21T06:31:58;97513.81;;;4.46;27.00
37792;BME280;29527;55.766;37.570;2023-02-21T06:34:24;97495.25;;;3.48;27.05
37792;BME280;29527;55.766;37.570;2023-02-21T06:36:54;97509.38;;;4.07;26.79
37792;BME280;29527;55.766;37.570;2023-02-21T06:39:20;97502.16;;;5.14;26.00
37792;BME280;29527;55.766;37.570;2023-02-21T06:41:45;97508.63;;;6.49;24.20
37792;BME280;29527;55.766;37.570;2023-02-21T06:44:11;97505.50;;;7.49;23.13
37792;BME280;29527;55.766;37.570;2023-02-21T06:46:36;97508.28;;;8.32;21.89
37792;BME280;29527;55.766;37.570;2023-02-21T06:49:03;97501.69;;;9.09;21.31
37792;BME280;29527;55.766;37.570;2023-02-21T06:51:36;97520.28;;;9.74;22.54
37792;BME280;29527;55.766;37.570;2023-02-21T06:54:03;97507.69;;;9.03;20.55
37792;BME280;29527;55.766;37.570;2023-02-21T06:56:28;97510.72;;;9.08;19.93
37792;BME280;29527;55.766;37.570;2023-02-21T06:58:55;97513.59;;;8.82;20.03
37792;BME280;29527;55.766;37.570;2023-02-21T07:01:21;97506.09;;;8.85;19.85
37792;BME280;29527;55.766;37.570;2023-02-21T07:03:48;97507.75;;;9.34;19.44
37792;BME280;29527;55.766;37.570;2023-02-21T07:06:14;97515.38;;;10.09;18.57
37792;BME280;29527;55.766;37.570;2023-02-21T07:08:39;97514.13;;;8.44;18.41
37792;BME280;29527;55.766;37.570;2023-02-21T07:11:05;97523.63;;;7.54;19.60
37792;BME280;29527;55.766;37.570;2023-02-21T07:13:32;97521.84;;;7.63;20.09
37792;BME280;29527;55.766;37.570;2023-02-21T07:15:57;97520.97;;;8.63;19.05
37792;BME280;29527;55.766;37.570;2023-02-21T07:18:22;97489.22;;;9.01;18.85
37792;BME280;29527;55.766;37.570;2023-02-21T07:20:48;97512.38;;;9.49;18.31
37792;BME280;29527;55.766;37.570;2023-02-21T07:23:14;97515.16;;;9.64;18.13
37792;BME280;29527;55.766;37.570;2023-02-21T07:25:39;97516.22;;;10.10;18.28
37792;BME280;29527;55.766;37.570;2023-02-21T07:28:05;97516.50;;;10.61;17.57
37792;BME280;29527;55.766;37.570;2023-02-21T07:30:30;97522.53;;;10.79;17.48
37792;BME280;29527;55.766;37.570;2023-02-21T07:32:56;97523.00;;;10.97;17.66
37792;BME280;29527;55.766;37.570;2023-02-21T07:35:22;97508.34;;;11.23;17.36
37792;BME280;29527;55.766;37.570;2023-02-21T07:37:48;97519.19;;;10.76;17.09
37792;BME280;29527;55.766;37.570;2023-02-21T07:40:13;97524.88;;;10.35;17.85
37792;BME280;29527;55.766;37.570;2023-02-21T07:42:42;97531.03;;;10.44;18.81
37792;BME280;29527;55.766;37.570;2023-02-21T07:45:09;97531.13;;;9.72;18.09
37792;BME280;29527;55.766;37.570;2023-02-21T07:47:34;97528.06;;;9.52;18.12
37792;BME280;29527;55.766;37.570;2023-02-21T07:50:00;97527.84;;;9.22;18.30
37792;BME280;29527;55.766;37.570;2023-02-21T07:52:25;97524.78;;;8.85;18.68
37792;BME280;29527;55.766;37.570;2023-02-21T07:54:51;97524.28;;;8.65;18.30
37792;BME280;29527;55.766;37.570;2023-02-21T07:57:17;97534.06;;;7.39;19.38
37792;BME280;29527;55.766;37.570;2023-02-21T07:59:42;97530.97;;;5.83;20.86
37792;BME280;29527;55.766;37.570;2023-02-21T08:02:10;97542.69;;;3.80;22.08
37792;BME280;29527;55.766;37.570;2023-02-21T08:04:35;97555.00;;;1.82;24.76
37792;BME280;29527;55.766;37.570;2023-02-21T08:07:02;97559.84;;;0.51;26.57
37792;BME280;29527;55.766;37.570;2023-02-21T08:09:28;97548.44;;;-0.69;28.00
37792;BME280;29527;55.766;37.570;2023-02-21T08:11:53;97553.34;;;-1.67;28.97
37792;BME280;29527;55.766;37.570;2023-02-21T08:14:19;97556.66;;;-1.91;29.33
37792;BME280;29527;55.766;37.570;2023-02-21T08:16:44;97520.16;;;-3.18;30.54
37792;BME280;29527;55.766;37.570;2023-02-21T08:19:10;97560.09;;;-4.35;32.46
37792;BME280;29527;55.766;37.570;2023-02-21T08:21:35;97537.50;;;-5.66;34.83
37792;BME280;29527;55.766;37.570;2023-02-21T08:24:01;97572.09;;;-6.15;36.35
37792;BME280;29527;55.766;37.570;2023-02-21T08:26:26;97559.38;;;-6.39;36.87
37792;BME280;29527;55.766;37.570;2023-02-21T08:28:51;97562.94;;;-6.79;38.42
37792;BME280;29527;55.766;37.570;2023-02-21T08:31:17;97570.19;;;-6.66;38.21
37792;BME280;29527;55.766;37.570;2023-02-21T08:33:43;97571.38;;;-6.93;39.06
37792;BME280;29527;55.766;37.570;2023-02-21T08:36:09;97571.78;;;-6.64;38.40
37792;BME280;29527;55.766;37.570;2023-02-21T08:38:34;97567.94;;;-6.74;39.11
37792;BME280;29527;55.766;37.570;2023-02-21T08:41:00;97576.53;;;-6.91;39.82
37792;BME280;29527;55.766;37.570;2023-02-21T08:43:27;97527.59;;;-7.02;39.57
37792;BME280;29527;55.766;37.570;2023-02-21T08:45:53;97572.66;;;-6.82;39.20
37792;BME280;29527;55.766;37.570;2023-02-21T08:48:18;97568.16;;;-6.98;41.20
37792;BME280;29527;55.766;37.570;2023-02-21T08:50:44;97569.41;;;-6.68;39.75
37792;BME280;29527;55.766;37.570;2023-02-21T08:53:13;97571.50;;;-6.57;39.65
37792;BME280;29527;55.766;37.570;2023-02-21T08:55:38;97567.53;;;-6.47;39.65
37792;BME280;29527;55.766;37.570;2023-02-21T08:58:04;97558.47;;;-6.21;39.30
37792;BME280;29527;55.766;37.570;2023-02-21T09:00:30;97562.66;;;-6.00;39.39
37792;BME280;29527;55.766;37.570;2023-02-21T09:02:57;97562.13;;;-5.72;38.69
37792;BME280;29527;55.766;37.570;2023-02-21T09:05:26;97559.25;;;-5.50;38.19
37792;BME280;29527;55.766;37.570;2023-02-21T09:07:53;97553.19;;;-5.50;38.55
37792;BME280;29527;55.766;37.570;2023-02-21T09:10:30;97567.19;;;-5.35;38.20
37792;BME280;29527;55.766;37.570;2023-02-21T09:12:58;97559.47;;;-5.21;38.24
37792;BME280;29527;55.766;37.570;2023-02-21T09:15:24;97563.19;;;-5.09;37.51
37792;BME280;29527;55.766;37.570;2023-02-21T09:17:50;97564.69;;;-5.21;37.93
37792;BME280;29527;55.766;37.570;2023-02-21T09:20:18;97565.72;;;-5.23;37.94
37792;BME280;29527;55.766;37.570;2023-02-21T09:22:44;97580.50;;;-5.57;38.18
37792;BME280;29527;55.766;37.570;2023-02-21T09:25:11;97569.47;;;-5.63;39.15
37792;BME280;29527;55.766;37.570;2023-02-21T09:27:39;97565.69;;;-5.39;38.28
37792;BME280;29527;55.766;37.570;2023-02-21T09:30:08;97561.38;;;-5.40;38.36
37792;BME280;29527;55.766;37.570;2023-02-21T09:32:34;97559.59;;;-5.40;38.50
37792;BME280;29527;55.766;37.570;2023-02-21T09:35:02;97559.78;;;-5.43;38.72
37792;BME280;29527;55.766;37.570;2023-02-21T09:37:29;97568.88;;;-5.34;38.54
37792;BME280;29527;55.766;37.570;2023-02-21T09:39:55;97560.72;;;-5.28;38.40
37792;BME280;29527;55.766;37.570;2023-02-21T09:42:25;97567.59;;;-5.09;38.89
37792;BME280;29527;55.766;37.570;2023-02-21T09:44:52;97563.38;;;-4.96;38.30
37792;BME280;29527;55.766;37.570;2023-02-21T09:47:26;97565.09;;;-4.79;38.56
37792;BME280;29527;55.766;37.570;2023-02-21T09:49:57;97562.91;;;-4.70;37.82
37792;BME280;29527;55.766;37.570;2023-02-21T09:52:36;97521.31;;;-4.90;37.89
37792;BME280;29527;55.766;37.570;2023-02-21T09:55:21;97559.78;;;-4.93;38.23
37792;BME280;29527;55.766;37.570;2023-02-21T09:57:51;97547.97;;;-5.50;38.60
37792;BME280;29527;55.766;37.570;2023-02-21T10:00:23;97574.66;;;-5.45;39.13
37792;BME280;29527;55.766;37.570;2023-02-21T10:02:55;97571.28;;;-5.13;39.22
37792;BME280;29527;55.766;37.570;2023-02-21T10:05:32;97555.81;;;-5.16;38.40
37792;BME280;29527;55.766;37.570;2023-02-21T10:13:42;97574.53;;;-5.95;40.27
37792;BME280;29527;55.766;37.570;2023-02-21T10:16:12;97574.44;;;-5.93;40.49
37792;BME280;29527;55.766;37.570;2023-02-21T10:18:46;97571.19;;;-5.97;40.53
37792;BME280;29527;55.766;37.570;2023-02-21T10:21:35;97569.81;;;-6.04;40.39
37792;BME280;29527;55.766;37.570;2023-02-21T10:24:08;97575.63;;;-6.16;41.01
37792;BME280;29527;55.766;37.570;2023-02-21T10:29:24;97578.59;;;-6.24;40.97
37792;BME280;29527;55.766;37.570;2023-02-21T10:31:55;97588.63;;;-6.34;41.72
37792;BME280;29527;55.766;37.570;2023-02-21T10:34:25;97577.44;;;-6.36;41.23
37792;BME280;29527;55.766;37.570;2023-02-21T10:36:53;97587.50;;;-6.28;41.96
37792;BME280;29527;55.766;37.570;2023-02-21T10:39:54;97597.69;;;-6.06;41.89
37792;BME280;29527;55.766;37.570;2023-02-21T10:42:30;97598.13;;;-5.80;41.23
37792;BME280;29527;55.766;37.570;2023-02-21T10:44:57;97609.81;;;-5.70;40.68
37792;BME280;29527;55.766;37.570;2023-02-21T10:47:44;97600.31;;;-5.71;41.27
37792;BME280;29527;55.766;37.570;2023-02-21T10:50:12;97601.66;;;-5.64;40.72
37792;BME280;29527;55.766;37.570;2023-02-21T10:52:47;97584.97;;;-5.77;41.42
37792;BME280;29527;55.766;37.570;2023-02-21T10:55:19;97610.34;;;-5.63;41.32
37792;BME280;29527;55.766;37.570;2023-02-21T10:57:48;97612.09;;;-5.64;41.38
37792;BME280;29527;55.766;37.570;2023-02-21T11:00:34;97616.22;;;-5.59;41.49
37792;BME280;29527;55.766;37.570;2023-02-21T11:05:51;97627.03;;;-5.67;41.07
37792;BME280;29527;55.766;37.570;2023-02-21T11:08:34;97622.75;;;-5.86;41.12
37792;BME280;29527;55.766;37.570;2023-02-21T11:11:01;97624.06;;;-6.12;41.74
37792;BME280;29527;55.766;37.570;2023-02-21T11:13:28;97636.91;;;-6.27;41.87
37792;BME280;29527;55.766;37.570;2023-02-21T11:18:42;97624.53;;;-6.60;42.00
37792;BME280;29527;55.766;37.570;2023-02-21T11:21:17;97599.59;;;-6.83;42.09
37792;BME280;29527;55.766;37.570;2023-02-21T11:26:11;97629.84;;;-6.61;42.58
37792;BME280;29527;55.766;37.570;2023-02-21T11:28:42;97604.03;;;-6.85;42.50
37792;BME280;29527;55.766;37.570;2023-02-21T11:31:26;97629.25;;;-6.87;43.19
37792;BME280;29527;55.766;37.570;2023-02-21T11:34:02;97643.88;;;-6.85;43.19
37792;BME280;29527;55.766;37.570;2023-02-21T11:36:34;97652.47;;;-6.83;42.91
37792;BME280;29527;55.766;37.570;2023-02-21T11:44:33;97651.78;;;-6.67;43.01
37792;BME280;29527;55.766;37.570;2023-02-21T11:52:30;97656.63;;;-6.40;42.79
37792;BME280;29527;55.766;37.570;2023-02-21T11:54:57;97649.72;;;-6.41;43.02
37792;BME280;29527;55.766;37.570;2023-02-21T12:08:51;97673.38;;;-6.46;44.49
37792;BME280;29527;55.766;37.570;2023-02-21T12:11:40;97674.38;;;-6.49;43.45
37792;BME280;29527;55.766;37.570;2023-02-21T12:22:47;97683.19;;;-6.91;44.93
37792;BME280;29527;55.766;37.570;2023-02-21T12:28:27;97687.84;;;-6.79;45.26
37792;BME280;29527;55.766;37.570;2023-02-21T12:36:16;97698.91;;;-6.54;44.76
37792;BME280;29527;55.766;37.570;2023-02-21T12:43:59;97710.63;;;-6.84;44.87
37792;BME280;29527;55.766;37.570;2023-02-21T12:46:38;97700.78;;;-6.96;45.68
37792;BME280;29527;55.766;37.570;2023-02-21T12:51:50;97739.97;;;-7.01;45.07
37792;BME280;29527;55.766;37.570;2023-02-21T12:54:21;97728.06;;;-7.07;45.23
37792;BME280;29527;55.766;37.570;2023-02-21T12:57:22;97729.38;;;-7.17;45.51
37792;BME280;29527;55.766;37.570;2023-02-21T13:05:12;97754.00;;;-7.46;45.77
37792;BME280;29527;55.766;37.570;2023-02-21T13:08:00;97746.75;;;-7.60;46.03
37792;BME280;29527;55.766;37.570;2023-02-21T13:10:33;97742.41;;;-7.82;46.40
37792;BME280;29527;55.766;37.570;2023-02-21T13:13:12;97758.88;;;-7.82;46.71
37792;BME280;29527;55.766;37.570;2023-02-21T13:15:40;97766.94;;;-7.89;46.48
37792;BME280;29527;55.766;37.570;2023-02-21T13:20:46;97769.56;;;-7.89;46.49
37792;BME280;29527;55.766;37.570;2023-02-21T13:23:32;97767.97;;;-7.94;46.59
37792;BME280;29527;55.766;37.570;2023-02-21T13:26:10;97775.41;;;-8.07;46.60
37792;BME280;29527;55.766;37.570;2023-02-21T13:28:39;97765.63;;;-8.24;46.77
37792;BME280;29527;55.766;37.570;2023-02-21T13:31:17;97749.06;;;-8.43;47.32
37792;BME280;29527;55.766;37.570;2023-02-21T13:33:48;97788.16;;;-8.24;47.00
37792;BME280;29527;55.766;37.570;2023-02-21T13:36:38;97784.28;;;-8.36;46.65
37792;BME280;29527;55.766;37.570;2023-02-21T13:41:38;97817.06;;;-8.57;47.57
37792;BME280;29527;55.766;37.570;2023-02-21T13:44:07;97811.66;;;-8.76;47.59
37792;BME280;29527;55.766;37.570;2023-02-21T13:52:14;97824.47;;;-8.97;48.12
37792;BME280;29527;55.766;37.570;2023-02-21T13:57:43;97828.88;;;-9.26;48.28
37792;BME280;29527;55.766;37.570;2023-02-21T14:02:59;97835.41;;;-9.41;49.00
37792;BME280;29527;55.766;37.570;2023-02-21T14:11:09;97858.25;;;-9.54;49.63
37792;BME280;29527;55.766;37.570;2023-02-21T14:13:50;97863.75;;;-9.63;49.90
37792;BME280;29527;55.766;37.570;2023-02-21T14:16:45;97866.69;;;-9.76;50.12
37792;BME280;29527;55.766;37.570;2023-02-21T14:19:23;97866.97;;;-9.85;49.97
37792;BME280;29527;55.766;37.570;2023-02-21T14:24:27;97881.06;;;-9.96;50.42
37792;BME280;29527;55.766;37.570;2023-02-21T14:26:56;97882.84;;;-9.98;50.38
37792;BME280;29527;55.766;37.570;2023-02-21T14:29:36;97887.19;;;-9.98;50.51
37792;BME280;29527;55.766;37.570;2023-02-21T14:34:32;97900.19;;;-10.01;50.95
37792;BME280;29527;55.766;37.570;2023-02-21T14:37:12;97912.41;;;-10.05;50.88
37792;BME280;29527;55.766;37.570;2023-02-21T14:39:43;97910.81;;;-10.11;51.17
37792;BME280;29527;55.766;37.570;2023-02-21T14:42:41;97880.44;;;-10.35;51.48
37792;BME280;29527;55.766;37.570;2023-02-21T14:58:55;97948.97;;;-10.17;51.77
37792;BME280;29527;55.766;37.570;2023-02-21T15:01:44;97951.75;;;-10.25;51.87
37792;BME280;29527;55.766;37.570;2023-02-21T15:04:33;97962.06;;;-10.24;51.82
37792;BME280;29527;55.766;37.570;2023-02-21T15:09:36;97946.34;;;-10.47;52.09
37792;BME280;29527;55.766;37.570;2023-02-21T15:12:05;97973.75;;;-10.40;52.48
37792;BME280;29527;55.766;37.570;2023-02-21T15:14:37;97978.16;;;-10.44;52.71
37792;BME280;29527;55.766;37.570;2023-02-21T15:17:12;97982.47;;;-10.44;52.72
37792;BME280;29527;55.766;37.570;2023-02-21T15:19:40;97984.34;;;-10.49;52.98
37792;BME280;29527;55.766;37.570;2023-02-21T15:30:34;98002.34;;;-10.46;53.24
37792;BME280;29527;55.766;37.570;2023-02-21T15:33:18;97998.94;;;-10.47;53.26
37792;BME280;29527;55.766;37.570;2023-02-21T15:35:50;98005.03;;;-10.49;53.08
37792;BME280;29527;55.766;37.570;2023-02-21T15:38:44;98011.97;;;-10.51;53.32
37792;BME280;29527;55.766;37.570;2023-02-21T15:44:02;97993.34;;;-10.66;53.38
37792;BME280;29527;55.766;37.570;2023-02-21T15:46:40;98017.31;;;-10.58;53.34
37792;BME280;29527;55.766;37.570;2023-02-21T15:49:08;98028.16;;;-10.43;52.69
37792;BME280;29527;55.766;37.570;2023-02-21T15:51:38;98034.44;;;-10.54;52.91
37792;BME280;29527;55.766;37.570;2023-02-21T15:56:41;98047.53;;;-10.60;53.32
37792;BME280;29527;55.766;37.570;2023-02-21T15:59:18;98053.59;;;-10.61;53.47